sensor_id;sensor_type;location;lat;lon;timestamp;temperature;humidity
12837;DHT22;6485;51.472;5.268;2023-07-08T12:08:12;32.40;99.90
12837;DHT22;6485;51.472;5.268;2023-07-08T12:10:41;32.50;99.90
12837;DHT22;6485;51.472;5.268;2023-07-08T12:13:12;32.40;99.90
12837;DHT22;6485;51.472;5.268;2023-07-08T12:15:41;32.40;99.90
12837;DHT22;6485;51.472;5.268;2023-07-08T12:18:11;32.60;99.90
12837;DHT22;6485;51.472;5.268;2023-07-08T12:20:40;32.60;99.90
12837;DHT22;6485;51.472;5.268;2023-07-08T12:23:09;32.50;99.90
12837;DHT22;6485;51.472;5.268;2023-07-08T12:25:39;32.40;99.90
12837;DHT22;6485;51.472;5.268;2023-07-08T12:28:08;32.40;99.90
12837;DHT22;6485;51.472;5.268;2023-07-08T12:30:36;32.50;99.90
12837;DHT22;6485;51.472;5.268;2023-07-08T12:33:08;32.50;99.90
12837;DHT22;6485;51.472;5.268;2023-07-08T12:35:37;32.60;99.90
12837;DHT22;6485;51.472;5.268;2023-07-08T12:38:06;32.50;99.90
12837;DHT22;6485;51.472;5.268;2023-07-08T12:40:40;32.40;99.90
12837;DHT22;6485;51.472;5.268;2023-07-08T12:43:08;32.50;99.90
12837;DHT22;6485;51.472;5.268;2023-07-08T12:45:37;32.40;99.90
12837;DHT22;6485;51.472;5.268;2023-07-08T12:48:05;32.50;99.90
12837;DHT22;6485;51.472;5.268;2023-07-08T12:50:33;32.60;99.90
12837;DHT22;6485;51.472;5.268;2023-07-08T12:53:03;32.60;99.90
12837;DHT22;6485;51.472;5.268;2023-07-08T12:55:36;32.60;99.90
12837;DHT22;6485;51.472;5.268;2023-07-08T12:58:07;32.60;99.90
12837;DHT22;6485;51.472;5.268;2023-07-08T13:00:38;32.60;99.90
12837;DHT22;6485;51.472;5.268;2023-07-08T13:03:08;32.70;99.90
12837;DHT22;6485;51.472;5.268;2023-07-08T13:05:39;32.60;99.90
12837;DHT22;6485;51.472;5.268;2023-07-08T13:08:08;32.60;99.90
12837;DHT22;6485;51.472;5.268;2023-07-08T13:10:38;32.60;99.90
12837;DHT22;6485;51.472;5.268;2023-07-08T13:13:11;32.70;99.90
12837;DHT22;6485;51.472;5.268;2023-07-08T13:15:40;32.80;99.90
12837;DHT22;6485;51.472;5.268;2023-07-08T13:18:12;32.90;99.90
12837;DHT22;6485;51.472;5.268;2023-07-08T13:20:40;32.90;99.90
12837;DHT22;6485;51.472;5.268;2023-07-08T13:23:09;32.80;99.90
12837;DHT22;6485;51.472;5.268;2023-07-08T13:25:37;32.70;99.90
12837;DHT22;6485;51.472;5.268;2023-07-08T13:28:16;32.70;99.90
12837;DHT22;6485;51.472;5.268;2023-07-08T13:30:51;32.80;99.90
12837;DHT22;6485;51.472;5.268;2023-07-08T13:33:20;32.80;99.90
12837;DHT22;6485;51.472;5.268;2023-07-08T13:35:49;32.60;99.90
12837;DHT22;6485;51.472;5.268;2023-07-08T13:38:18;32.60;99.90
12837;DHT22;6485;51.472;5.268;2023-07-08T13:40:47;32.40;99.90
12837;DHT22;6485;51.472;5.268;2023-07-08T13:43:22;32.30;99.90
12837;DHT22;6485;51.472;5.268;2023-07-08T13:45:50;32.30;99.90
12837;DHT22;6485;51.472;5.268;2023-07-08T13:48:22;32.30;99.90
12837;DHT22;6485;51.472;5.268;2023-07-08T13:50:53;32.30;99.90
12837;DHT22;6485;51.472;5.268;2023-07-08T13:53:24;32.40;99.90
12837;DHT22;6485;51.472;5.268;2023-07-08T13:55:59;32.40;99.90
12837;DHT22;6485;51.472;5.268;2023-07-08T13:58:29;32.50;99.90
12837;DHT22;6485;51.472;5.268;2023-07-08T14:00:57;32.60;99.90
12837;DHT22;6485;51.472;5.268;2023-07-08T14:03:26;32.50;99.90
12837;DHT22;6485;51.472;5.268;2023-07-08T14:05:54;32.40;99.90
12837;DHT22;6485;51.472;5.268;2023-07-08T14:08:22;32.30;99.90
12837;DHT22;6485;51.472;5.268;2023-07-08T14:10:50;32.20;99.90
12837;DHT22;6485;51.472;5.268;2023-07-08T14:13:18;32.10;99.90
12837;DHT22;6485;51.472;5.268;2023-07-08T14:15:48;32.00;99.90
12837;DHT22;6485;51.472;5.268;2023-07-08T14:18:17;31.90;99.90
12837;DHT22;6485;51.472;5.268;2023-07-08T14:20:44;31.90;99.90
12837;DHT22;6485;51.472;5.268;2023-07-08T14:23:12;31.90;99.90
12837;DHT22;6485;51.472;5.268;2023-07-08T14:25:40;31.90;99.90
12837;DHT22;6485;51.472;5.268;2023-07-08T14:28:08;31.90;99.90
12837;DHT22;6485;51.472;5.268;2023-07-08T14:30:39;31.90;99.90
12837;DHT22;6485;51.472;5.268;2023-07-08T14:33:10;31.90;99.90
12837;DHT22;6485;51.472;5.268;2023-07-08T14:35:38;32.00;99.90
12837;DHT22;6485;51.472;5.268;2023-07-08T14:38:08;32.00;99.90
12837;DHT22;6485;51.472;5.268;2023-07-08T14:40:37;32.20;99.90
12837;DHT22;6485;51.472;5.268;2023-07-08T14:43:10;32.20;99.90
12837;DHT22;6485;51.472;5.268;2023-07-08T14:45:39;32.30;99.90
12837;DHT22;6485;51.472;5.268;2023-07-08T14:48:10;32.30;99.90
12837;DHT22;6485;51.472;5.268;2023-07-08T14:50:38;32.20;99.90
12837;DHT22;6485;51.472;5.268;2023-07-08T14:53:06;32.20;99.90
12837;DHT22;6485;51.472;5.268;2023-07-08T14:55:35;32.20;99.90
12837;DHT22;6485;51.472;5.268;2023-07-08T14:58:03;32.10;99.90
12837;DHT22;6485;51.472;5.268;2023-07-08T15:00:32;32.10;99.90
12837;DHT22;6485;51.472;5.268;2023-07-08T15:03:00;32.10;99.90
12837;DHT22;6485;51.472;5.268;2023-07-08T15:05:29;32.10;99.90
12837;DHT22;6485;51.472;5.268;2023-07-08T15:07:57;32.10;99.90
12837;DHT22;6485;51.472;5.268;2023-07-08T15:10:26;32.10;99.90
12837;DHT22;6485;51.472;5.268;2023-07-08T15:12:55;32.10;99.90
12837;DHT22;6485;51.472;5.268;2023-07-08T15:15:28;32.10;99.90
12837;DHT22;6485;51.472;5.268;2023-07-08T15:17:57;32.00;99.90
12837;DHT22;6485;51.472;5.268;2023-07-08T15:20:26;32.00;99.90
12837;DHT22;6485;51.472;5.268;2023-07-08T15:22:55;32.00;99.90
12837;DHT22;6485;51.472;5.268;2023-07-08T15:25:23;31.90;99.90
12837;DHT22;6485;51.472;5.268;2023-07-08T15:27:52;31.90;99.90
12837;DHT22;6485;51.472;5.268;2023-07-08T15:30:22;31.90;99.90
12837;DHT22;6485;51.472;5.268;2023-07-08T15:32:50;31.70;99.90
12837;DHT22;6485;51.472;5.268;2023-07-08T15:35:19;31.50;99.90
12837;DHT22;6485;51.472;5.268;2023-07-08T15:37:47;31.30;99.90
12837;DHT22;6485;51.472;5.268;2023-07-08T15:40:18;31.10;99.90
12837;DHT22;6485;51.472;5.268;2023-07-08T15:42:46;31.00;99.90
12837;DHT22;6485;51.472;5.268;2023-07-08T15:45:21;30.90;99.90
12837;DHT22;6485;51.472;5.268;2023-07-08T15:47:50;31.00;99.90
12837;DHT22;6485;51.472;5.268;2023-07-08T15:50:19;31.10;99.90
12837;DHT22;6485;51.472;5.268;2023-07-08T15:52:47;31.20;99.90
12837;DHT22;6485;51.472;5.268;2023-07-08T15:55:17;31.20;99.90
12837;DHT22;6485;51.472;5.268;2023-07-08T15:57:47;31.20;99.90
12837;DHT22;6485;51.472;5.268;2023-07-08T16:00:15;31.20;99.90
12837;DHT22;6485;51.472;5.268;2023-07-08T16:02:48;31.20;99.90
12837;DHT22;6485;51.472;5.268;2023-07-08T16:05:17;31.20;99.90
12837;DHT22;6485;51.472;5.268;2023-07-08T16:07:45;31.20;99.90
12837;DHT22;6485;51.472;5.268;2023-07-08T16:10:14;31.30;99.90
12837;DHT22;6485;51.472;5.268;2023-07-08T16:12:43;31.30;99.90
12837;DHT22;6485;51.472;5.268;2023-07-08T16:15:12;31.30;99.90
12837;DHT22;6485;51.472;5.268;2023-07-08T16:17:40;31.30;99.90
12837;DHT22;6485;51.472;5.268;2023-07-08T16:20:14;31.40;99.90
12837;DHT22;6485;51.472;5.268;2023-07-08T16:22:42;31.40;99.90
12837;DHT22;6485;51.472;5.268;2023-07-08T16:25:11;31.50;99.90
12837;DHT22;6485;51.472;5.268;2023-07-08T16:27:39;31.60;99.90
12837;DHT22;6485;51.472;5.268;2023-07-08T16:30:09;31.70;99.90
12837;DHT22;6485;51.472;5.268;2023-07-08T16:32:39;31.70;99.90
12837;DHT22;6485;51.472;5.268;2023-07-08T16:35:07;31.70;99.90
12837;DHT22;6485;51.472;5.268;2023-07-08T16:37:36;31.60;99.90
12837;DHT22;6485;51.472;5.268;2023-07-08T16:40:04;31.50;99.90
12837;DHT22;6485;51.472;5.268;2023-07-08T16:42:33;31.40;99.90
12837;DHT22;6485;51.472;5.268;2023-07-08T16:45:01;31.20;99.90
12837;DHT22;6485;51.472;5.268;2023-07-08T16:47:33;31.20;99.90
12837;DHT22;6485;51.472;5.268;2023-07-08T16:50:01;31.20;99.90
12837;DHT22;6485;51.472;5.268;2023-07-08T16:52:29;31.10;99.90
12837;DHT22;6485;51.472;5.268;2023-07-08T16:54:58;31.00;99.90
12837;DHT22;6485;51.472;5.268;2023-07-08T16:57:26;30.90;99.90
12837;DHT22;6485;51.472;5.268;2023-07-08T16:59:54;30.90;99.90
12837;DHT22;6485;51.472;5.268;2023-07-08T17:02:22;31.00;99.90
12837;DHT22;6485;51.472;5.268;2023-07-08T17:04:52;31.10;99.90
12837;DHT22;6485;51.472;5.268;2023-07-08T17:07:21;31.20;99.90
12837;DHT22;6485;51.472;5.268;2023-07-08T17:09:49;31.20;99.90
12837;DHT22;6485;51.472;5.268;2023-07-08T17:12:17;31.40;99.90
12837;DHT22;6485;51.472;5.268;2023-07-08T17:14:44;31.40;99.90
12837;DHT22;6485;51.472;5.268;2023-07-08T17:17:12;31.50;99.90
12837;DHT22;6485;51.472;5.268;2023-07-08T17:19:41;31.40;99.90
12837;DHT22;6485;51.472;5.268;2023-07-08T17:22:10;31.30;99.90
12837;DHT22;6485;51.472;5.268;2023-07-08T17:24:38;31.40;99.90
12837;DHT22;6485;51.472;5.268;2023-07-08T17:27:06;31.30;99.90
12837;DHT22;6485;51.472;5.268;2023-07-08T17:29:34;31.40;99.90
12837;DHT22;6485;51.472;5.268;2023-07-08T17:32:02;31.40;99.90
12837;DHT22;6485;51.472;5.268;2023-07-08T17:34:30;31.20;99.90
12837;DHT22;6485;51.472;5.268;2023-07-08T17:36:59;31.20;99.90
12837;DHT22;6485;51.472;5.268;2023-07-08T17:39:28;31.10;99.90
12837;DHT22;6485;51.472;5.268;2023-07-08T17:41:56;31.10;99.90
12837;DHT22;6485;51.472;5.268;2023-07-08T17:44:24;31.00;99.90
12837;DHT22;6485;51.472;5.268;2023-07-08T17:46:52;31.00;99.90
12837;DHT22;6485;51.472;5.268;2023-07-08T17:49:20;31.00;99.90
12837;DHT22;6485;51.472;5.268;2023-07-08T17:51:48;30.90;99.90
12837;DHT22;6485;51.472;5.268;2023-07-08T17:54:19;30.90;99.90
12837;DHT22;6485;51.472;5.268;2023-07-08T17:56:48;30.90;99.90
12837;DHT22;6485;51.472;5.268;2023-07-08T17:59:19;30.80;99.90
12837;DHT22;6485;51.472;5.268;2023-07-08T18:01:47;30.80;99.90
12837;DHT22;6485;51.472;5.268;2023-07-08T18:04:15;30.70;99.90
12837;DHT22;6485;51.472;5.268;2023-07-08T18:06:43;30.60;99.90
12837;DHT22;6485;51.472;5.268;2023-07-08T18:09:11;30.50;99.90
12837;DHT22;6485;51.472;5.268;2023-07-08T18:11:40;30.40;99.90
12837;DHT22;6485;51.472;5.268;2023-07-08T18:14:11;30.40;99.90
12837;DHT22;6485;51.472;5.268;2023-07-08T18:16:39;30.30;99.90
12837;DHT22;6485;51.472;5.268;2023-07-08T18:19:08;30.20;99.90
12837;DHT22;6485;51.472;5.268;2023-07-08T18:21:36;30.10;99.90
12837;DHT22;6485;51.472;5.268;2023-07-08T18:24:07;30.10;99.90
12837;DHT22;6485;51.472;5.268;2023-07-08T18:26:35;30.00;99.90
12837;DHT22;6485;51.472;5.268;2023-07-08T18:29:03;30.00;99.90
12837;DHT22;6485;51.472;5.268;2023-07-08T18:31:34;29.90;99.90
12837;DHT22;6485;51.472;5.268;2023-07-08T18:34:03;29.80;99.90
12837;DHT22;6485;51.472;5.268;2023-07-08T18:36:32;29.80;99.90
12837;DHT22;6485;51.472;5.268;2023-07-08T18:39:00;29.80;99.90
12837;DHT22;6485;51.472;5.268;2023-07-08T18:41:28;29.70;99.90
12837;DHT22;6485;51.472;5.268;2023-07-08T18:43:57;29.60;99.90
12837;DHT22;6485;51.472;5.268;2023-07-08T18:46:24;29.50;99.90
12837;DHT22;6485;51.472;5.268;2023-07-08T18:48:54;29.50;99.90
12837;DHT22;6485;51.472;5.268;2023-07-08T18:51:36;29.40;99.90
12837;DHT22;6485;51.472;5.268;2023-07-08T18:54:07;29.20;99.90
12837;DHT22;6485;51.472;5.268;2023-07-08T18:56:35;29.10;99.90
12837;DHT22;6485;51.472;5.268;2023-07-08T18:59:02;29.00;99.90
12837;DHT22;6485;51.472;5.268;2023-07-08T19:01:30;29.00;99.90
12837;DHT22;6485;51.472;5.268;2023-07-08T19:04:00;28.90;99.90
12837;DHT22;6485;51.472;5.268;2023-07-08T19:06:28;28.80;99.90
12837;DHT22;6485;51.472;5.268;2023-07-08T19:08:56;28.90;99.90
12837;DHT22;6485;51.472;5.268;2023-07-08T19:11:24;28.70;99.90
12837;DHT22;6485;51.472;5.268;2023-07-08T19:13:53;28.50;99.90
12837;DHT22;6485;51.472;5.268;2023-07-08T19:16:21;28.50;99.90
12837;DHT22;6485;51.472;5.268;2023-07-08T19:18:49;28.40;99.90
12837;DHT22;6485;51.472;5.268;2023-07-08T19:21:20;28.30;99.90
12837;DHT22;6485;51.472;5.268;2023-07-08T19:23:50;28.20;99.90
12837;DHT22;6485;51.472;5.268;2023-07-08T19:26:19;28.10;99.90
12837;DHT22;6485;51.472;5.268;2023-07-08T19:28:49;28.00;99.90
12837;DHT22;6485;51.472;5.268;2023-07-08T19:31:18;27.90;99.90
12837;DHT22;6485;51.472;5.268;2023-07-08T19:33:47;27.80;99.90
12837;DHT22;6485;51.472;5.268;2023-07-08T19:36:15;27.80;99.90
12837;DHT22;6485;51.472;5.268;2023-07-08T19:38:47;27.70;99.90
12837;DHT22;6485;51.472;5.268;2023-07-08T19:41:15;27.60;99.90
12837;DHT22;6485;51.472;5.268;2023-07-08T19:43:43;27.60;99.90
12837;DHT22;6485;51.472;5.268;2023-07-08T19:46:12;27.40;99.90
12837;DHT22;6485;51.472;5.268;2023-07-08T19:48:42;27.30;99.90
12837;DHT22;6485;51.472;5.268;2023-07-08T19:51:11;27.20;99.90
12837;DHT22;6485;51.472;5.268;2023-07-08T19:53:39;27.20;1.00
12837;DHT22;6485;51.472;5.268;2023-07-08T19:56:11;27.20;1.00
12837;DHT22;6485;51.472;5.268;2023-07-08T19:58:39;27.10;24.50
12837;DHT22;6485;51.472;5.268;2023-07-08T20:01:07;27.10;1.00
12837;DHT22;6485;51.472;5.268;2023-07-08T20:03:35;27.10;68.40
12837;DHT22;6485;51.472;5.268;2023-07-08T20:06:09;27.00;99.90
12837;DHT22;6485;51.472;5.268;2023-07-08T20:08:37;27.00;73.40
12837;DHT22;6485;51.472;5.268;2023-07-08T20:11:07;26.90;99.90
12837;DHT22;6485;51.472;5.268;2023-07-08T20:13:37;26.90;55.20
12837;DHT22;6485;51.472;5.268;2023-07-08T20:16:09;26.80;99.90
12837;DHT22;6485;51.472;5.268;2023-07-08T20:18:39;26.80;99.90
12837;DHT22;6485;51.472;5.268;2023-07-08T20:21:07;26.70;78.40
12837;DHT22;6485;51.472;5.268;2023-07-08T20:23:34;26.60;1.00
12837;DHT22;6485;51.472;5.268;2023-07-08T20:26:04;26.60;4.40
12837;DHT22;6485;51.472;5.268;2023-07-08T20:28:32;26.50;1.00
12837;DHT22;6485;51.472;5.268;2023-07-08T20:31:13;26.40;1.00
12837;DHT22;6485;51.472;5.268;2023-07-08T20:33:42;26.30;1.00
12837;DHT22;6485;51.472;5.268;2023-07-08T20:36:11;26.20;1.00
12837;DHT22;6485;51.472;5.268;2023-07-08T20:38:39;26.10;1.00
12837;DHT22;6485;51.472;5.268;2023-07-08T20:41:07;26.10;1.00
12837;DHT22;6485;51.472;5.268;2023-07-08T20:43:35;26.00;47.70
12837;DHT22;6485;51.472;5.268;2023-07-08T20:46:03;26.00;99.90
12837;DHT22;6485;51.472;5.268;2023-07-08T20:48:38;26.00;21.70
12837;DHT22;6485;51.472;5.268;2023-07-08T20:51:06;25.90;41.30
12837;DHT22;6485;51.472;5.268;2023-07-08T20:53:34;25.90;99.90
12837;DHT22;6485;51.472;5.268;2023-07-08T20:56:04;25.80;99.90
12837;DHT22;6485;51.472;5.268;2023-07-08T20:58:36;25.70;99.90
12837;DHT22;6485;51.472;5.268;2023-07-08T21:01:04;25.70;99.90
12837;DHT22;6485;51.472;5.268;2023-07-08T21:03:31;25.60;99.90
12837;DHT22;6485;51.472;5.268;2023-07-08T21:06:01;25.60;99.90
12837;DHT22;6485;51.472;5.268;2023-07-08T21:08:32;25.50;99.90
12837;DHT22;6485;51.472;5.268;2023-07-08T21:11:01;25.40;99.90
12837;DHT22;6485;51.472;5.268;2023-07-08T21:13:29;25.40;99.90
12837;DHT22;6485;51.472;5.268;2023-07-08T21:15:57;25.40;99.90
12837;DHT22;6485;51.472;5.268;2023-07-08T21:18:26;25.40;99.90
12837;DHT22;6485;51.472;5.268;2023-07-08T21:20:58;25.40;99.90
12837;DHT22;6485;51.472;5.268;2023-07-08T21:23:27;25.30;99.90
12837;DHT22;6485;51.472;5.268;2023-07-08T21:25:56;25.30;99.90
12837;DHT22;6485;51.472;5.268;2023-07-08T21:28:26;25.20;99.90
12837;DHT22;6485;51.472;5.268;2023-07-08T21:30:55;25.10;99.90
12837;DHT22;6485;51.472;5.268;2023-07-08T21:33:23;25.10;99.90
12837;DHT22;6485;51.472;5.268;2023-07-08T21:35:51;25.00;99.90
12837;DHT22;6485;51.472;5.268;2023-07-08T21:38:20;25.00;99.90
12837;DHT22;6485;51.472;5.268;2023-07-08T21:40:49;25.00;99.90
12837;DHT22;6485;51.472;5.268;2023-07-08T21:43:18;24.90;99.90
12837;DHT22;6485;51.472;5.268;2023-07-08T21:45:46;24.80;99.90
12837;DHT22;6485;51.472;5.268;2023-07-08T21:48:14;24.80;99.90
12837;DHT22;6485;51.472;5.268;2023-07-08T21:50:44;24.80;99.90
12837;DHT22;6485;51.472;5.268;2023-07-08T21:53:16;24.70;99.90
12837;DHT22;6485;51.472;5.268;2023-07-08T21:55:44;24.70;99.90
12837;DHT22;6485;51.472;5.268;2023-07-08T21:58:16;24.60;99.90
12837;DHT22;6485;51.472;5.268;2023-07-08T22:00:45;24.70;99.90
12837;DHT22;6485;51.472;5.268;2023-07-08T22:03:14;24.60;99.90
12837;DHT22;6485;51.472;5.268;2023-07-08T22:05:42;24.60;99.90
12837;DHT22;6485;51.472;5.268;2023-07-08T22:08:12;24.50;99.90
12837;DHT22;6485;51.472;5.268;2023-07-08T22:10:40;24.50;99.90
12837;DHT22;6485;51.472;5.268;2023-07-08T22:13:11;24.40;99.90
12837;DHT22;6485;51.472;5.268;2023-07-08T22:15:42;24.40;99.90
12837;DHT22;6485;51.472;5.268;2023-07-08T22:18:10;24.30;99.90
12837;DHT22;6485;51.472;5.268;2023-07-08T22:20:38;24.30;99.90
12837;DHT22;6485;51.472;5.268;2023-07-08T22:23:12;24.30;99.90
12837;DHT22;6485;51.472;5.268;2023-07-08T22:25:39;24.30;99.90
12837;DHT22;6485;51.472;5.268;2023-07-08T22:28:07;24.20;99.90
12837;DHT22;6485;51.472;5.268;2023-07-08T22:30:35;24.20;99.90
12837;DHT22;6485;51.472;5.268;2023-07-08T22:33:04;24.10;99.90
12837;DHT22;6485;51.472;5.268;2023-07-08T22:35:32;24.10;99.90
12837;DHT22;6485;51.472;5.268;2023-07-08T22:38:00;24.10;99.90
12837;DHT22;6485;51.472;5.268;2023-07-08T22:40:28;24.00;99.90
12837;DHT22;6485;51.472;5.268;2023-07-08T22:42:56;23.90;99.90
12837;DHT22;6485;51.472;5.268;2023-07-08T22:45:25;23.90;99.90
12837;DHT22;6485;51.472;5.268;2023-07-08T22:47:53;23.80;99.90
12837;DHT22;6485;51.472;5.268;2023-07-08T22:50:24;23.80;99.90
12837;DHT22;6485;51.472;5.268;2023-07-08T22:52:53;23.80;99.90
12837;DHT22;6485;51.472;5.268;2023-07-08T22:55:23;23.80;99.90
12837;DHT22;6485;51.472;5.268;2023-07-08T22:57:52;23.70;99.90
12837;DHT22;6485;51.472;5.268;2023-07-08T23:00:21;23.80;99.90
12837;DHT22;6485;51.472;5.268;2023-07-08T23:02:50;23.70;99.90
12837;DHT22;6485;51.472;5.268;2023-07-08T23:05:19;23.70;99.90
12837;DHT22;6485;51.472;5.268;2023-07-08T23:07:49;23.70;99.90
12837;DHT22;6485;51.472;5.268;2023-07-08T23:10:17;23.70;99.90
12837;DHT22;6485;51.472;5.268;2023-07-08T23:12:45;23.60;99.90
12837;DHT22;6485;51.472;5.268;2023-07-08T23:15:13;23.60;99.90
12837;DHT22;6485;51.472;5.268;2023-07-08T23:17:41;23.50;99.90
12837;DHT22;6485;51.472;5.268;2023-07-08T23:20:14;23.50;99.90
12837;DHT22;6485;51.472;5.268;2023-07-08T23:22:43;23.40;99.90
12837;DHT22;6485;51.472;5.268;2023-07-08T23:25:12;23.30;99.90
12837;DHT22;6485;51.472;5.268;2023-07-08T23:27:40;23.30;99.90
12837;DHT22;6485;51.472;5.268;2023-07-08T23:30:13;23.30;99.90
12837;DHT22;6485;51.472;5.268;2023-07-08T23:32:41;23.20;99.90
12837;DHT22;6485;51.472;5.268;2023-07-08T23:35:09;23.10;99.90
12837;DHT22;6485;51.472;5.268;2023-07-08T23:37:37;23.10;99.90
12837;DHT22;6485;51.472;5.268;2023-07-08T23:40:08;23.00;99.90
12837;DHT22;6485;51.472;5.268;2023-07-08T23:42:39;22.90;99.90
12837;DHT22;6485;51.472;5.268;2023-07-08T23:45:08;22.90;99.90
12837;DHT22;6485;51.472;5.268;2023-07-08T23:47:38;22.90;99.90
12837;DHT22;6485;51.472;5.268;2023-07-08T23:50:08;22.80;99.90
12837;DHT22;6485;51.472;5.268;2023-07-08T23:52:37;22.80;99.90
12837;DHT22;6485;51.472;5.268;2023-07-08T23:55:06;22.80;99.90
12837;DHT22;6485;51.472;5.268;2023-07-08T23:57:34;22.80;99.90
